Observation data for Reese Center on 09/13/2017      Previous  Date  Next       Current Mesonet Observations  Soil Data  Daily Summary Page  Observations in Plain Language
KREE 130500Z 10009KT 22/10 A2997 RMK A01 T02170099  RH  048%=      5-min Rain = 0
KREE 130505Z 11009KT 22/10 A2997 RMK A01 T02150098  RH  048%=      5-min Rain = 0
KREE 130510Z 11009KT 22/10 A2996 RMK A01 T02150097  RH  048%=      5-min Rain = 0
KREE 130515Z 11009KT 22/10 A2996 RMK A01 T02160096  RH  047%=      5-min Rain = 0
KREE 130520Z 11008KT 22/10 A2997 RMK A01 T02150096  RH  047%=      5-min Rain = 0
KREE 130525Z 10007KT 21/10 A2997 RMK A01 T02130097  RH  048%=      5-min Rain = 0
KREE 130530Z 11008KT 21/10 A2997 RMK A01 T02100097  RH  049%=      5-min Rain = 0
KREE 130535Z 11009KT 21/10 A2996 RMK A01 T02100096  RH  049%=      5-min Rain = 0
KREE 130540Z 11007KT 21/10 A2996 RMK A01 T02100096  RH  049%=      5-min Rain = 0
KREE 130545Z 11007KT 21/10 A2996 RMK A01 T02070097  RH  050%=      5-min Rain = 0
KREE 130550Z 11007KT 21/10 A2996 RMK A01 T02050097  RH  051%=      5-min Rain = 0
KREE 130555Z 11007KT 20/10 A2996 RMK A01 T02040097  RH  051%=      5-min Rain = 0
KREE 130600Z 10007KT 20/10 A2996 RMK A01 T02020097  RH  052%=      5-min Rain = 0
KREE 130605Z 10006KT 20/10 A2996 RMK A01 T01980099  RH  054%=      5-min Rain = 0
KREE 130610Z 12005KT 20/10 A2996 RMK A01 T01960099  RH  054%=      5-min Rain = 0
KREE 130615Z 13005KT 20/10 A2996 RMK A01 T01960099  RH  054%=      5-min Rain = 0
KREE 130620Z 13005KT 20/10 A2996 RMK A01 T01990098  RH  053%=      5-min Rain = 0
KREE 130625Z 14005KT 20/10 A2996 RMK A01 T02040097  RH  051%=      5-min Rain = 0
KREE 130630Z 14005KT 21/10 A2996 RMK A01 T02090096  RH  049%=      5-min Rain = 0
KREE 130635Z 14006KT 21/10 A2996 RMK A01 T02120096  RH  048%=      5-min Rain = 0
KREE 130640Z 15006KT 21/10 A2996 RMK A01 T02130096  RH  048%=      5-min Rain = 0
KREE 130645Z 17004KT 21/10 A2997 RMK A01 T02140097  RH  048%=      5-min Rain = 0
KREE 130650Z 16005KT 21/10 A2996 RMK A01 T02140098  RH  048%=      5-min Rain = 0
KREE 130655Z 15007KT 21/10 A2996 RMK A01 T02110099  RH  050%=      5-min Rain = 0
KREE 130700Z 14007KT 21/10 A2995 RMK A01 T02090099  RH  050%=      5-min Rain = 0
KREE 130705Z 15007KT 21/10 A2995 RMK A01 T02090097  RH  050%=      5-min Rain = 0
KREE 130710Z 14008KT 21/10 A2995 RMK A01 T02100095  RH  049%=      5-min Rain = 0
KREE 130715Z 14009KT 21/09 A2995 RMK A01 T02110093  RH  048%=      5-min Rain = 0
KREE 130720Z 14008KT 21/09 A2995 RMK A01 T02120093  RH  047%=      5-min Rain = 0
KREE 130725Z 16007KT 21/09 A2995 RMK A01 T02110094  RH  048%=      5-min Rain = 0
KREE 130730Z 16006KT 21/10 A2995 RMK A01 T02080096  RH  049%=      5-min Rain = 0
KREE 130735Z 14008KT 20/10 A2995 RMK A01 T02030096  RH  051%=      5-min Rain = 0
KREE 130740Z 13009KT 20/09 A2994 RMK A01 T02010094  RH  051%=      5-min Rain = 0
KREE 130745Z 13008KT 20/09 A2994 RMK A01 T02020093  RH  050%=      5-min Rain = 0
KREE 130750Z 14007KT 20/09 A2994 RMK A01 T02030092  RH  050%=      5-min Rain = 0
KREE 130755Z 14008KT 20/09 A2994 RMK A01 T02020091  RH  049%=      5-min Rain = 0
KREE 130800Z 13009KT 20/09 A2993 RMK A01 T02040089  RH  048%=      5-min Rain = 0
KREE 130805Z 14009KT 20/09 A2993 RMK A01 T02040088  RH  048%=      5-min Rain = 0
KREE 130810Z 14008KT 20/09 A2993 RMK A01 T02030089  RH  049%=      5-min Rain = 0
KREE 130815Z 14008KT 20/09 A2993 RMK A01 T02020088  RH  049%=      5-min Rain = 0
KREE 130820Z 14008KT 20/09 A2993 RMK A01 T02010088  RH  049%=      5-min Rain = 0
KREE 130825Z 13008KT 20/09 A2993 RMK A01 T02000089  RH  049%=      5-min Rain = 0
KREE 130830Z 13008KT 20/09 A2993 RMK A01 T01980089  RH  050%=      5-min Rain = 0
KREE 130835Z 13007KT 20/09 A2993 RMK A01 T01970089  RH  050%=      5-min Rain = 0
KREE 130840Z 12006KT 20/09 A2992 RMK A01 T01960089  RH  051%=      5-min Rain = 0
KREE 130845Z 12007KT 19/09 A2992 RMK A01 T01940089  RH  051%=      5-min Rain = 0
KREE 130850Z 11006KT 19/09 A2992 RMK A01 T01940090  RH  052%=      5-min Rain = 0
KREE 130855Z 10007KT 19/09 A2991 RMK A01 T01890093  RH  054%=      5-min Rain = 0
KREE 130900Z 10007KT 19/10 A2991 RMK A01 T01850095  RH  057%=      5-min Rain = 0
KREE 130905Z 11006KT 19/09 A2991 RMK A01 T01870094  RH  056%=      5-min Rain = 0
KREE 130910Z 12006KT 19/09 A2991 RMK A01 T01910092  RH  053%=      5-min Rain = 0
KREE 130915Z 13005KT 20/09 A2992 RMK A01 T01960090  RH  051%=      5-min Rain = 0
KREE 130920Z 13006KT 20/09 A2992 RMK A01 T01990089  RH  050%=      5-min Rain = 0
KREE 130925Z 13007KT 20/09 A2991 RMK A01 T02010088  RH  049%=      5-min Rain = 0
KREE 130930Z 13006KT 20/09 A2992 RMK A01 T02010089  RH  049%=      5-min Rain = 0
KREE 130935Z 13006KT 20/09 A2991 RMK A01 T02010088  RH  049%=      5-min Rain = 0
KREE 130940Z 12006KT 20/09 A2991 RMK A01 T02010088  RH  049%=      5-min Rain = 0
KREE 130945Z 13005KT 20/09 A2992 RMK A01 T02020088  RH  048%=      5-min Rain = 0
KREE 130950Z 13006KT 20/09 A2991 RMK A01 T02020087  RH  048%=      5-min Rain = 0
KREE 130955Z 13005KT 20/09 A2992 RMK A01 T02020088  RH  048%=      5-min Rain = 0
KREE 131000Z 12005KT 20/09 A2991 RMK A01 T02020088  RH  048%=      5-min Rain = 0
KREE 131005Z 12005KT 20/09 A2992 RMK A01 T02030087  RH  048%=      5-min Rain = 0
KREE 131010Z 12007KT 20/09 A2991 RMK A01 T02030086  RH  047%=      5-min Rain = 0
KREE 131015Z 12006KT 20/09 A2991 RMK A01 T02040086  RH  047%=      5-min Rain = 0
KREE 131020Z 12005KT 20/09 A2991 RMK A01 T02020088  RH  049%=      5-min Rain = 0
KREE 131025Z 13005KT 20/09 A2992 RMK A01 T02010088  RH  049%=      5-min Rain = 0
KREE 131030Z 14005KT 20/09 A2992 RMK A01 T02020088  RH  049%=      5-min Rain = 0
KREE 131035Z 13005KT 20/09 A2992 RMK A01 T02020088  RH  049%=      5-min Rain = 0
KREE 131040Z 12006KT 20/09 A2992 RMK A01 T02020087  RH  048%=      5-min Rain = 0
KREE 131045Z 12006KT 20/09 A2992 RMK A01 T02030086  RH  048%=      5-min Rain = 0
KREE 131050Z 13006KT 20/09 A2992 RMK A01 T02020085  RH  048%=      5-min Rain = 0
KREE 131055Z 12006KT 20/09 A2992 RMK A01 T02020085  RH  047%=      5-min Rain = 0
KREE 131100Z 12007KT 20/08 A2992 RMK A01 T02020084  RH  047%=      5-min Rain = 0
KREE 131105Z 12007KT 20/09 A2992 RMK A01 T02020085  RH  048%=      5-min Rain = 0
KREE 131110Z 12006KT 20/09 A2992 RMK A01 T02000086  RH  048%=      5-min Rain = 0
KREE 131115Z 13006KT 20/09 A2992 RMK A01 T01990087  RH  049%=      5-min Rain = 0
KREE 131120Z 13007KT 20/09 A2992 RMK A01 T01990086  RH  049%=      5-min Rain = 0
KREE 131125Z 13007KT 20/09 A2992 RMK A01 T01990086  RH  049%=      5-min Rain = 0
KREE 131130Z 13007KT 20/09 A2992 RMK A01 T01990086  RH  049%=      5-min Rain = 0
KREE 131135Z 13008KT 20/09 A2992 RMK A01 T01990085  RH  049%=      5-min Rain = 0
KREE 131140Z 13007KT 20/09 A2992 RMK A01 T01980086  RH  049%=      5-min Rain = 0
KREE 131145Z 13007KT 20/09 A2992 RMK A01 T01990085  RH  049%=      5-min Rain = 0
KREE 131150Z 13006KT 20/09 A2992 RMK A01 T01980086  RH  049%=      5-min Rain = 0
KREE 131155Z 14006KT 20/09 A2992 RMK A01 T01980086  RH  049%=      5-min Rain = 0
KREE 131200Z 14007KT 20/09 A2993 RMK A01 T01970087  RH  050%=      5-min Rain = 0
KREE 131205Z 14007KT 20/09 A2993 RMK A01 T01980086  RH  049%=      5-min Rain = 0
KREE 131210Z 14008KT 20/09 A2993 RMK A01 T01990085  RH  049%=      5-min Rain = 0
KREE 131215Z 13008KT 20/09 A2993 RMK A01 T02000085  RH  048%=      5-min Rain = 0
KREE 131220Z 14008KT 20/08 A2993 RMK A01 T02000084  RH  048%=      5-min Rain = 0
KREE 131225Z 14008KT 20/09 A2993 RMK A01 T02000085  RH  048%=      5-min Rain = 0
KREE 131230Z 13008KT 20/08 A2993 RMK A01 T02010084  RH  048%=      5-min Rain = 0
KREE 131235Z 13007KT 20/09 A2993 RMK A01 T02000085  RH  048%=      5-min Rain = 0
KREE 131240Z 13008KT 20/08 A2993 RMK A01 T02000084  RH  048%=      5-min Rain = 0
KREE 131245Z 13008KT 20/08 A2993 RMK A01 T02010083  RH  047%=      5-min Rain = 0
KREE 131250Z 13008KT 20/09 A2993 RMK A01 T02010085  RH  048%=      5-min Rain = 0
KREE 131255Z 13009KT 20/08 A2993 RMK A01 T02010084  RH  047%=      5-min Rain = 0
KREE 131300Z 13009KT 20/08 A2993 RMK A01 T02010084  RH  048%=      5-min Rain = 0
KREE 131305Z 13009KT 20/08 A2993 RMK A01 T02020084  RH  047%=      5-min Rain = 0
KREE 131310Z 14008KT 20/09 A2993 RMK A01 T02020085  RH  048%=      5-min Rain = 0
KREE 131315Z 13007KT 20/09 A2993 RMK A01 T02020087  RH  048%=      5-min Rain = 0
KREE 131320Z 13008KT 20/09 A2993 RMK A01 T02010087  RH  049%=      5-min Rain = 0
KREE 131325Z 13007KT 20/09 A2994 RMK A01 T02010088  RH  049%=      5-min Rain = 0
KREE 131330Z 14007KT 20/09 A2994 RMK A01 T02040090  RH  049%=      5-min Rain = 0
KREE 131335Z 14008KT 21/09 A2994 RMK A01 T02080089  RH  047%=      5-min Rain = 0
KREE 131340Z 15008KT 21/09 A2994 RMK A01 T02100090  RH  047%=      5-min Rain = 0
KREE 131345Z 14007KT 21/09 A2994 RMK A01 T02130091  RH  046%=      5-min Rain = 0
KREE 131350Z 14009KT 22/09 A2994 RMK A01 T02150090  RH  045%=      5-min Rain = 0
KREE 131355Z 14008KT 22/09 A2994 RMK A01 T02170091  RH  045%=      5-min Rain = 0
KREE 131400Z 14008KT 22/09 A2994 RMK A01 T02180091  RH  045%=      5-min Rain = 0
KREE 131405Z 15008KT 22/09 A2994 RMK A01 T02200094  RH  045%=      5-min Rain = 0
KREE 131410Z 15009KT 22/09 A2994 RMK A01 T02220092  RH  044%=      5-min Rain = 0
KREE 131415Z 15007KT 22/09 A2994 RMK A01 T02230094  RH  044%=      5-min Rain = 0
KREE 131420Z 16008KT 23/10 A2994 RMK A01 T02250095  RH  044%=      5-min Rain = 0
KREE 131425Z 15008KT 23/10 A2994 RMK A01 T02270096  RH  044%=      5-min Rain = 0
KREE 131430Z 16007KT 23/10 A2994 RMK A01 T02300097  RH  043%=      5-min Rain = 0
KREE 131435Z 16010KT 23/10 A2994 RMK A01 T02330096  RH  042%=      5-min Rain = 0
KREE 131440Z 16010KT 23/10 A2994 RMK A01 T02340095  RH  042%=      5-min Rain = 0
KREE 131445Z 16010KT 24/10 A2994 RMK A01 T02360097  RH  042%=      5-min Rain = 0
KREE 131450Z 16010KT 24/10 A2994 RMK A01 T02390098  RH  041%=      5-min Rain = 0
KREE 131455Z 17010KT 24/10 A2994 RMK A01 T02420097  RH  040%=      5-min Rain = 0
KREE 131500Z 16013KT 24/10 A2994 RMK A01 T02440095  RH  039%=      5-min Rain = 0
KREE 131505Z 17012KT 25/10 A2994 RMK A01 T02450095  RH  039%=      5-min Rain = 0
KREE 131510Z 16011KT 25/10 A2995 RMK A01 T02460095  RH  039%=      5-min Rain = 0
KREE 131515Z 16011KT 25/10 A2995 RMK A01 T02470096  RH  039%=      5-min Rain = 0
KREE 131520Z 16010KT 25/10 A2995 RMK A01 T02500098  RH  039%=      5-min Rain = 0
KREE 131525Z 16010KT 25/10 A2995 RMK A01 T02520099  RH  039%=      5-min Rain = 0
KREE 131530Z 15011KT 26/10 A2995 RMK A01 T02550099  RH  038%=      5-min Rain = 0
KREE 131535Z 15011KT 26/10 A2995 RMK A01 T02570100  RH  038%=      5-min Rain = 0
KREE 131540Z 16011KT 26/10 A2995 RMK A01 T02610101  RH  037%=      5-min Rain = 0
KREE 131545Z 16011KT 26/10 A2995 RMK A01 T02620099  RH  036%=      5-min Rain = 0
KREE 131550Z 16011KT 26/10 A2995 RMK A01 T02630100  RH  036%=      5-min Rain = 0
KREE 131555Z 16011KT 26/10 A2995 RMK A01 T02640099  RH  036%=      5-min Rain = 0
KREE 131600Z 16011KT 27/10 A2995 RMK A01 T02650099  RH  036%=      5-min Rain = 0
KREE 131605Z 16011KT 26/10 A2995 RMK A01 T02640099  RH  036%=      5-min Rain = 0
KREE 131610Z 16010KT 27/10 A2995 RMK A01 T02670101  RH  036%=      5-min Rain = 0
KREE 131615Z 16011KT 27/10 A2995 RMK A01 T02690102  RH  036%=      5-min Rain = 0
KREE 131620Z 15011KT 27/10 A2994 RMK A01 T02720103  RH  035%=      5-min Rain = 0
KREE 131625Z 16009KT 28/11 A2994 RMK A01 T02750105  RH  035%=      5-min Rain = 0
KREE 131630Z 17010KT 28/10 A2994 RMK A01 T02770099  RH  033%=      5-min Rain = 0
KREE 131635Z 18012KT 28/10 A2994 RMK A01 T02760095  RH  033%=      5-min Rain = 0
KREE 131640Z 18012KT 28/09 A2994 RMK A01 T02750094  RH  033%=      5-min Rain = 0
KREE 131645Z 18010KT 28/10 A2994 RMK A01 T02770098  RH  033%=      5-min Rain = 0
KREE 131650Z 18010KT 28/10 A2994 RMK A01 T02780097  RH  033%=      5-min Rain = 0
KREE 131655Z 17009G14KT 28/10 A2994 RMK A01 T02800100  RH  033%=      5-min Rain = 0
KREE 131700Z 16008G13KT 28/10 A2994 RMK A01 T02830100  RH  032%=      5-min Rain = 0
KREE 131705Z 16009KT 29/10 A2994 RMK A01 T02860101  RH  032%=      5-min Rain = 0
KREE 131710Z 15008KT 29/10 A2994 RMK A01 T02880100  RH  032%=      5-min Rain = 0
KREE 131715Z 17009G14KT 29/10 A2993 RMK A01 T02880095  RH  030%=      5-min Rain = 0
KREE 131720Z 15009KT 29/10 A2993 RMK A01 T02870096  RH  031%=      5-min Rain = 0
KREE 131725Z 15009KT 29/10 A2993 RMK A01 T02900098  RH  031%=      5-min Rain = 0
KREE 131730Z 15009KT 29/10 A2993 RMK A01 T02920096  RH  030%=      5-min Rain = 0
KREE 131735Z 16009KT 29/10 A2993 RMK A01 T02930095  RH  030%=      5-min Rain = 0
KREE 131740Z 16008KT 30/10 A2993 RMK A01 T02960096  RH  029%=      5-min Rain = 0
KREE 131745Z 16009KT 30/10 A2993 RMK A01 T02950097  RH  030%=      5-min Rain = 0
KREE 131750Z 16009KT 30/10 A2993 RMK A01 T02980099  RH  030%=      5-min Rain = 0
KREE 131755Z 15008KT 30/10 A2993 RMK A01 T02960096  RH  029%=      5-min Rain = 0
KREE 131800Z 14008KT 30/10 A2993 RMK A01 T02980096  RH  029%=      5-min Rain = 0
KREE 131805Z 13008KT 30/10 A2993 RMK A01 T02980100  RH  030%=      5-min Rain = 0
KREE 131810Z 15010KT 30/10 A2992 RMK A01 T03000096  RH  029%=      5-min Rain = 0
KREE 131815Z 14008G13KT 30/10 A2992 RMK A01 T03020096  RH  028%=      5-min Rain = 0
KREE 131820Z 15009KT 30/10 A2992 RMK A01 T03030097  RH  028%=      5-min Rain = 0
KREE 131825Z 14007G13KT 30/10 A2992 RMK A01 T03030097  RH  028%=      5-min Rain = 0
KREE 131830Z 14009KT 31/10 A2991 RMK A01 T03070099  RH  028%=      5-min Rain = 0
KREE 131835Z 14009KT 31/10 A2991 RMK A01 T03100095  RH  027%=      5-min Rain = 0
KREE 131840Z 14007G12KT 31/09 A2991 RMK A01 T03100094  RH  027%=      5-min Rain = 0
KREE 131845Z 16008G13KT 31/09 A2991 RMK A01 T03140094  RH  026%=      5-min Rain = 0
KREE 131850Z 16007KT 31/09 A2991 RMK A01 T03130089  RH  025%=      5-min Rain = 0
KREE 131855Z 17008G13KT 31/09 A299 RMK A01 T03140090  RH  025%=      5-min Rain = 0
KREE 131900Z 14007KT 32/09 A299 RMK A01 T03150087  RH  025%=      5-min Rain = 0
KREE 131905Z 16008KT 32/09 A299 RMK A01 T03180088  RH  025%=      5-min Rain = 0
KREE 131910Z 16006G12KT 32/09 A299 RMK A01 T03180087  RH  024%=      5-min Rain = 0
KREE 131915Z 15008KT 32/09 A2989 RMK A01 T03200088  RH  024%=      5-min Rain = 0
KREE 131920Z 15007KT 32/09 A2989 RMK A01 T03200088  RH  024%=      5-min Rain = 0
KREE 131925Z 16006KT 32/09 A2989 RMK A01 T03200085  RH  024%=      5-min Rain = 0
KREE 131930Z 15008KT 32/09 A2989 RMK A01 T03240089  RH  024%=      5-min Rain = 0
KREE 131935Z 16009KT 32/09 A2988 RMK A01 T03240085  RH  023%=      5-min Rain = 0
KREE 131940Z 16006G11KT 33/08 A2988 RMK A01 T03250078  RH  022%=      5-min Rain = 0
KREE 131945Z 17009KT 33/08 A2988 RMK A01 T03260081  RH  022%=      5-min Rain = 0
KREE 131950Z 16007KT 33/07 A2988 RMK A01 T03270072  RH  021%=      5-min Rain = 0
KREE 131955Z 17005G13KT 33/08 A2987 RMK A01 T03280077  RH  022%=      5-min Rain = 0
KREE 132000Z 17008KT 33/08 A2987 RMK A01 T03310081  RH  022%=      5-min Rain = 0
KREE 132005Z 19005KT 33/08 A2987 RMK A01 T03290076  RH  021%=      5-min Rain = 0
KREE 132010Z 17005G10KT 33/07 A2987 RMK A01 T03300071  RH  020%=      5-min Rain = 0
KREE 132015Z 17009KT 33/07 A2986 RMK A01 T03310074  RH  021%=      5-min Rain = 0
KREE 132020Z 14005KT 33/07 A2986 RMK A01 T03300074  RH  021%=      5-min Rain = 0
KREE 132025Z 13009KT 33/08 A2986 RMK A01 T03290078  RH  021%=      5-min Rain = 0
KREE 132030Z 12007G13KT 33/07 A2986 RMK A01 T03250073  RH  021%=      5-min Rain = 0
KREE 132035Z 15009KT 33/07 A2986 RMK A01 T03310074  RH  021%=      5-min Rain = 0
KREE 132040Z 16006G11KT 33/07 A2986 RMK A01 T03330067  RH  020%=      5-min Rain = 0
KREE 132045Z 18006KT 34/08 A2986 RMK A01 T03350075  RH  020%=      5-min Rain = 0
KREE 132050Z 20006G12KT 33/07 A2986 RMK A01 T03340071  RH  020%=      5-min Rain = 0
KREE 132055Z 17005KT 34/07 A2985 RMK A01 T03350068  RH  019%=      5-min Rain = 0
KREE 132100Z 18006G12KT 34/07 A2985 RMK A01 T03380067  RH  019%=      5-min Rain = 0
KREE 132105Z 19008KT 33/06 A2985 RMK A01 T03340063  RH  019%=      5-min Rain = 0
KREE 132110Z 19008KT 33/07 A2985 RMK A01 T03310065  RH  019%=      5-min Rain = 0
KREE 132115Z 15006KT 34/07 A2985 RMK A01 T03350065  RH  019%=      5-min Rain = 0
KREE 132120Z 18009G14KT 34/07 A2985 RMK A01 T03360068  RH  019%=      5-min Rain = 0
KREE 132125Z 20005KT 34/07 A2985 RMK A01 T03350067  RH  019%=      5-min Rain = 0
KREE 132130Z 14004KT 34/07 A2985 RMK A01 T03360067  RH  019%=      5-min Rain = 0
KREE 132135Z 13007KT 34/07 A2985 RMK A01 T03370067  RH  019%=      5-min Rain = 0
KREE 132140Z 15004KT 34/07 A2984 RMK A01 T03380066  RH  019%=      5-min Rain = 0
KREE 132145Z 16009KT 34/07 A2984 RMK A01 T03400068  RH  019%=      5-min Rain = 0
KREE 132150Z 19010KT 34/07 A2984 RMK A01 T03360067  RH  019%=      5-min Rain = 0
KREE 132155Z 20008KT 33/06 A2984 RMK A01 T03340064  RH  019%=      5-min Rain = 0
KREE 132200Z 21004KT 33/07 A2984 RMK A01 T03330065  RH  019%=      5-min Rain = 0
KREE 132205Z 16007KT 34/07 A2984 RMK A01 T03370067  RH  019%=      5-min Rain = 0
KREE 132210Z 14006KT 34/07 A2984 RMK A01 T03370065  RH  019%=      5-min Rain = 0
KREE 132215Z 16004G10KT 34/07 A2983 RMK A01 T03380068  RH  019%=      5-min Rain = 0
KREE 132220Z 15005G10KT 34/07 A2983 RMK A01 T03420065  RH  018%=      5-min Rain = 0
KREE 132225Z 17008G15KT 34/07 A2983 RMK A01 T03400067  RH  019%=      5-min Rain = 0
KREE 132230Z 15009KT 34/07 A2983 RMK A01 T03380068  RH  019%=      5-min Rain = 0
KREE 132235Z 17008KT 34/06 A2983 RMK A01 T03360064  RH  019%=      5-min Rain = 0
KREE 132240Z 17007KT 34/06 A2983 RMK A01 T03360064  RH  019%=      5-min Rain = 0
KREE 132245Z 16007KT 34/06 A2983 RMK A01 T03350064  RH  019%=      5-min Rain = 0
KREE 132250Z 18006KT 34/06 A2983 RMK A01 T03360061  RH  018%=      5-min Rain = 0
KREE 132255Z 17005KT 34/06 A2983 RMK A01 T03360064  RH  019%=      5-min Rain = 0
KREE 132300Z 16007KT 34/06 A2983 RMK A01 T03360062  RH  019%=      5-min Rain = 0
KREE 132305Z 18006KT 34/07 A2983 RMK A01 T03370065  RH  019%=      5-min Rain = 0
KREE 132310Z 18007KT 33/06 A2983 RMK A01 T03330064  RH  019%=      5-min Rain = 0
KREE 132315Z 18005KT 33/06 A2983 RMK A01 T03340061  RH  019%=      5-min Rain = 0
KREE 132320Z 18007KT 33/06 A2983 RMK A01 T03330062  RH  019%=      5-min Rain = 0
KREE 132325Z 17007KT 33/07 A2983 RMK A01 T03310065  RH  019%=      5-min Rain = 0
KREE 132330Z 18007KT 33/07 A2983 RMK A01 T03300066  RH  020%=      5-min Rain = 0
KREE 132335Z 17007KT 33/07 A2983 RMK A01 T03290065  RH  020%=      5-min Rain = 0
KREE 132340Z 17006KT 33/07 A2983 RMK A01 T03290071  RH  020%=      5-min Rain = 0
KREE 132345Z 16008KT 33/07 A2983 RMK A01 T03270073  RH  021%=      5-min Rain = 0
KREE 132350Z 16007KT 33/07 A2983 RMK A01 T03250074  RH  021%=      5-min Rain = 0
KREE 132355Z 16007KT 32/08 A2983 RMK A01 T03230077  RH  022%=      5-min Rain = 0
KREE 140000Z 16007KT 32/08 A2983 RMK A01 T03210076  RH  022%=      5-min Rain = 0
KREE 140005Z 16006KT 32/08 A2983 RMK A01 T03200082  RH  023%=      5-min Rain = 0
KREE 140010Z 16007KT 32/08 A2983 RMK A01 T03170080  RH  023%=      5-min Rain = 0
KREE 140015Z 16007KT 32/08 A2983 RMK A01 T03150079  RH  023%=      5-min Rain = 0
KREE 140020Z 16006KT 31/08 A2983 RMK A01 T03110083  RH  025%=      5-min Rain = 0
KREE 140025Z 16005KT 31/09 A2983 RMK A01 T03080091  RH  026%=      5-min Rain = 0
KREE 140030Z 16005KT 31/09 A2983 RMK A01 T03060093  RH  027%=      5-min Rain = 0
KREE 140035Z 15005KT 30/09 A2983 RMK A01 T03020093  RH  028%=      5-min Rain = 0
KREE 140040Z 15006KT 30/09 A2983 RMK A01 T02970090  RH  028%=      5-min Rain = 0
KREE 140045Z 15007KT 29/09 A2983 RMK A01 T02910088  RH  028%=      5-min Rain = 0
KREE 140050Z 14007KT 29/08 A2983 RMK A01 T02850084  RH  029%=      5-min Rain = 0
KREE 140055Z 14007KT 28/08 A2983 RMK A01 T02800083  RH  029%=      5-min Rain = 0
KREE 140100Z 14006KT 28/08 A2983 RMK A01 T02760083  RH  030%=      5-min Rain = 0
KREE 140105Z 14006KT 27/08 A2983 RMK A01 T02730083  RH  031%=      5-min Rain = 0
KREE 140110Z 14006KT 27/08 A2983 RMK A01 T02700082  RH  031%=      5-min Rain = 0
KREE 140115Z 14006KT 27/08 A2983 RMK A01 T02670082  RH  031%=      5-min Rain = 0
KREE 140120Z 14006KT 26/08 A2984 RMK A01 T02640081  RH  032%=      5-min Rain = 0
KREE 140125Z 14007KT 26/08 A2984 RMK A01 T02640079  RH  031%=      5-min Rain = 0
KREE 140130Z 14007KT 27/08 A2984 RMK A01 T02650078  RH  031%=      5-min Rain = 0
KREE 140135Z 13007KT 26/08 A2984 RMK A01 T02640078  RH  031%=      5-min Rain = 0
KREE 140140Z 13008KT 26/08 A2984 RMK A01 T02630077  RH  031%=      5-min Rain = 0
KREE 140145Z 12007KT 26/08 A2984 RMK A01 T02620078  RH  031%=      5-min Rain = 0
KREE 140150Z 12007KT 26/09 A2984 RMK A01 T02550086  RH  035%=      5-min Rain = 0
KREE 140155Z 12008KT 25/08 A2984 RMK A01 T02510084  RH  035%=      5-min Rain = 0
KREE 140200Z 11008KT 25/08 A2984 RMK A01 T02500084  RH  036%=      5-min Rain = 0
KREE 140205Z 11008KT 25/08 A2985 RMK A01 T02470084  RH  036%=      5-min Rain = 0
KREE 140210Z 11007KT 25/08 A2985 RMK A01 T02470083  RH  036%=      5-min Rain = 0
KREE 140215Z 12008KT 25/08 A2985 RMK A01 T02470084  RH  036%=      5-min Rain = 0
KREE 140220Z 12007KT 25/09 A2985 RMK A01 T02460085  RH  036%=      5-min Rain = 0
KREE 140225Z 12007KT 24/09 A2985 RMK A01 T02420089  RH  038%=      5-min Rain = 0
KREE 140230Z 11006KT 24/09 A2985 RMK A01 T02410090  RH  039%=      5-min Rain = 0
KREE 140235Z 11006KT 24/09 A2985 RMK A01 T02400092  RH  040%=      5-min Rain = 0
KREE 140240Z 11007KT 24/10 A2985 RMK A01 T02360095  RH  041%=      5-min Rain = 0
KREE 140245Z 11008KT 23/10 A2986 RMK A01 T02330096  RH  043%=      5-min Rain = 0
KREE 140250Z 11009KT 24/10 A2986 RMK A01 T02350095  RH  041%=      5-min Rain = 0
KREE 140255Z 11009KT 24/10 A2986 RMK A01 T02370095  RH  041%=      5-min Rain = 0
KREE 140300Z 11009KT 24/10 A2986 RMK A01 T02370096  RH  041%=      5-min Rain = 0
KREE 140305Z 11009KT 24/10 A2987 RMK A01 T02350097  RH  042%=      5-min Rain = 0
KREE 140310Z 10010KT 24/10 A2987 RMK A01 T02370096  RH  041%=      5-min Rain = 0
KREE 140315Z 11010KT 24/09 A2987 RMK A01 T02410092  RH  039%=      5-min Rain = 0
KREE 140320Z 11010KT 24/09 A2987 RMK A01 T02430090  RH  038%=      5-min Rain = 0
KREE 140325Z 11009KT 24/09 A2987 RMK A01 T02440088  RH  038%=      5-min Rain = 0
KREE 140330Z 11010KT 25/09 A2987 RMK A01 T02470086  RH  037%=      5-min Rain = 0
KREE 140335Z 12010KT 25/09 A2987 RMK A01 T02490085  RH  036%=      5-min Rain = 0
KREE 140340Z 11011KT 25/08 A2987 RMK A01 T02540084  RH  035%=      5-min Rain = 0
KREE 140345Z 12012KT 26/08 A2987 RMK A01 T02580084  RH  034%=      5-min Rain = 0
KREE 140350Z 12012KT 26/09 A2987 RMK A01 T02590085  RH  034%=      5-min Rain = 0
KREE 140355Z 12011KT 26/09 A2987 RMK A01 T02580086  RH  034%=      5-min Rain = 0
KREE 140400Z 11011KT 26/09 A2987 RMK A01 T02560087  RH  035%=      5-min Rain = 0
KREE 140405Z 11011KT 26/09 A2987 RMK A01 T02550088  RH  035%=      5-min Rain = 0
KREE 140410Z 11012KT 25/09 A2987 RMK A01 T02530088  RH  036%=      5-min Rain = 0
KREE 140415Z 12011KT 25/09 A2987 RMK A01 T02530088  RH  036%=      5-min Rain = 0
KREE 140420Z 12012G18KT 25/09 A2987 RMK A01 T02530088  RH  036%=      5-min Rain = 0
KREE 140425Z 12012G17KT 25/09 A2987 RMK A01 T02530088  RH  036%=      5-min Rain = 0
KREE 140430Z 12012KT 25/09 A2987 RMK A01 T02530088  RH  036%=      5-min Rain = 0
KREE 140435Z 12012KT 25/09 A2987 RMK A01 T02510089  RH  036%=      5-min Rain = 0
KREE 140440Z 12012KT 25/09 A2987 RMK A01 T02510089  RH  036%=      5-min Rain = 0
KREE 140445Z 12011KT 25/09 A2987 RMK A01 T02490090  RH  037%=      5-min Rain = 0
KREE 140450Z 11011KT 25/09 A2987 RMK A01 T02470090  RH  038%=      5-min Rain = 0
KREE 140455Z 11010KT 25/09 A2987 RMK A01 T02460091  RH  038%=      5-min Rain = 0

Page generated in 0.0403 seconds.